Vattmanville, Texas
Current Conditions -  °F | °C
As of 9:56 AM on Friday 24 Oct 2014 (Local Time) from KNQI Reporting Station
Clear Clear  
Wind Chill: 24°   Ceiling: Unl
Heat Index: 24°   Visibility: 10mi
Dew Point: 20°   Wind: 6mph
Humidity: 79%   Direction: 340°NNW
Pressure: 30.16"   Gusts: NA
Location:  27.3193°N, 97.8839°W
Report Text: KNQI 241456Z 34005KT 10SM CLR 24/20 A3016 RMK AO2 SLP208 T02390200 51018
Loading
Personal Weather Stations






























Interactive Weather Map
Tropical Storm Tracking
New forecast layout! Learn more

10-Day Weather Forecast

Advertisements
Track Severe Weather on mobile